Time;durP1;ratioP1;P1;durP2;ratioP2;P2;SDS_P1;SDS_P2;PMS_P1;PMS_P2;Temp;Humidity;BMP_temperature;BMP_pressure;BME280_temperature;BME280_humidity;BME280_pressure;Samples;Min_cycle;Max_cycle;Signal;HPM_P1;HPM_P2
2021/03/29 00:00:11;;;;;;;61.20;37.73;;;;;;;12.46;44.79;101300.30;1771497;80;21088;-83
2021/03/29 00:02:39;;;;;;;66.05;37.25;;;;;;;12.44;44.85;101304.95;1748218;81;21566;-81
2021/03/29 00:05:07;;;;;;;;;;;;;;;12.41;44.93;101295.88;1750183;81;21076;-80
2021/03/29 00:07:34;;;;;;;61.92;37.23;;;;;;;12.37;44.98;101288.60;1772132;81;20207;-76
2021/03/29 00:10:05;;;;;;;56.65;36.25;;;;;;;12.37;45.06;101291.78;1774008;81;21227;-76
2021/03/29 00:12:35;;;;;;;64.35;37.73;;;;;;;12.36;45.12;101294.98;1749722;81;21147;-81
2021/03/29 00:15:05;;;;;;;70.65;37.95;;;;;;;12.33;45.18;101295.77;1771536;80;21140;-80
2021/03/29 00:17:35;;;;;;;65.60;40.15;;;;;;;12.28;45.33;101300.24;1748168;81;21586;-79
2021/03/29 00:20:18;;;;;;;65.12;39.55;;;;;;;12.25;45.48;101297.00;1771219;80;21123;-79
2021/03/29 00:22:46;;;;;;;64.85;41.88;;;;;;;12.19;45.60;101297.95;1771434;81;21072;-79
2021/03/29 00:25:16;;;;;;;59.38;39.42;;;;;;;12.19;45.73;101298.45;1747764;81;21155;-79
2021/03/29 00:27:45;;;;;;;68.55;41.28;;;;;;;12.18;45.79;101296.27;1770378;81;21615;-78
2021/03/29 00:30:23;;;;;;;68.40;40.85;;;;;;;12.18;45.87;101297.61;1771684;79;21214;-79
2021/03/29 00:32:57;;;;;;;62.53;37.08;;;;;;;12.18;45.92;101293.58;1719955;81;21183;-79
2021/03/29 00:35:25;;;;;;;56.77;35.73;;;;;;;12.15;46.00;101289.83;1770479;81;21215;-81
2021/03/29 00:37:57;;;;;;;64.12;37.88;;;;;;;12.18;46.06;101296.27;1770895;81;21167;-82
2021/03/29 00:40:26;;;;;;;70.28;39.48;;;;;;;12.16;46.16;101293.36;1771028;81;21132;-81
2021/03/29 00:43:00;;;;;;;65.40;38.83;;;;;;;12.22;46.11;101293.26;1770918;81;21187;-79
2021/03/29 00:45:29;;;;;;;62.50;37.30;;;;;;;12.21;46.15;101299.13;1770857;80;21143;-81
2021/03/29 00:47:56;;;;;;;67.85;41.25;;;;;;;12.21;46.11;101291.58;1771280;80;21072;-82
2021/03/29 00:50:47;;;;;;;67.12;39.18;;;;;;;12.23;46.09;101297.66;1747832;81;21152;-82
2021/03/29 00:53:17;;;;;;;70.97;39.78;;;;;;;12.22;46.10;101292.78;1771297;80;21491;-79
2021/03/29 00:55:48;;;;;;;63.40;40.03;;;;;;;12.21;46.18;101292.41;1748196;81;21515;-77
2021/03/29 00:58:22;;;;;;;64.20;40.45;;;;;;;12.15;46.27;101293.86;1771334;81;21539;-83
2021/03/29 01:00:58;;;;;;;66.42;39.38;;;;;;;12.09;46.42;101294.97;1771276;81;22250;-78
2021/03/29 01:03:30;;;;;;;66.92;41.90;;;;;;;12.07;46.56;101299.12;1771401;80;21087;-79
2021/03/29 01:06:06;;;;;;;64.42;40.15;;;;;;;12.06;46.63;101292.06;1771184;80;21164;-82
2021/03/29 01:08:38;;;;;;;69.95;41.05;;;;;;;12.06;46.67;101294.75;1771642;81;21103;-81
2021/03/29 01:11:07;;;;;;;61.00;34.67;;;;;;;12.07;46.72;101295.09;1747785;81;21127;-78
2021/03/29 01:13:38;;;;;;;60.15;36.77;;;;;;;12.09;46.79;101298.49;1771458;80;21617;-79
2021/03/29 01:16:06;;;;;;;64.60;38.53;;;;;;;12.09;46.87;101291.78;1771391;80;21100;-79
2021/03/29 01:18:35;;;;;;;63.28;36.80;;;;;;;12.12;46.95;101301.36;1771195;81;21167;-78
2021/03/29 01:21:45;;;;;;;63.52;37.73;;;;;;;12.15;46.96;101299.73;1747647;81;21636;-80
2021/03/29 01:24:27;;;;;;;55.58;35.25;;;;;;;12.18;46.92;101296.77;1771645;81;21116;-80
2021/03/29 01:26:54;;;;;;;57.73;35.00;;;;;;;12.21;46.82;101305.00;1771342;81;21155;-82
2021/03/29 01:29:21;;;;;;;;;;;;;;;12.22;46.79;101305.34;1725808;81;21147;-79
2021/03/29 01:31:49;;;;;;;61.13;36.58;;;;;;;12.21;46.80;101304.50;1748095;81;20239;-78
2021/03/29 01:34:16;;;;;;;57.83;36.03;;;;;;;12.21;46.80;101300.47;1747764;81;21064;-78
2021/03/29 01:36:45;;;;;;;55.33;35.73;;;;;;;12.22;46.81;101304.00;1723517;81;21646;-79
2021/03/29 01:39:12;;;;;;;61.18;36.10;;;;;;;12.22;46.79;101302.19;1747636;81;21151;-81
2021/03/29 01:41:41;;;;;;;61.05;35.45;;;;;;;12.24;46.74;101302.03;1771522;80;21076;-80
2021/03/29 01:44:09;;;;;;;60.50;36.03;;;;;;;12.24;46.68;101302.88;1771380;81;21091;-80
2021/03/29 01:46:36;;;;;;;60.03;36.38;;;;;;;12.24;46.61;101302.88;1747856;81;21134;-81
2021/03/29 01:49:04;;;;;;;59.48;36.08;;;;;;;12.29;46.51;101305.11;1748057;81;21570;-81
2021/03/29 01:51:32;;;;;;;65.67;37.90;;;;;;;12.29;46.50;101301.08;1771482;81;21159;-81
2021/03/29 01:54:00;;;;;;;63.35;37.03;;;;;;;12.28;46.48;101304.27;1771428;81;21084;-78
2021/03/29 01:56:27;;;;;;;52.98;32.38;;;;;;;12.27;46.52;101310.64;1771329;81;21088;-82
2021/03/29 01:58:54;;;;;;;50.50;33.83;;;;;;;12.27;46.49;101308.46;1771646;80;21119;-81
2021/03/29 02:01:22;;;;;;;52.88;33.10;;;;;;;12.30;46.50;101305.45;1747645;81;21143;-78
2021/03/29 02:03:50;;;;;;;56.65;33.73;;;;;;;12.33;46.45;101306.52;1771472;80;21111;-77
2021/03/29 02:06:17;;;;;;;52.23;34.85;;;;;;;12.30;46.50;101310.33;1771936;81;21060;-77
2021/03/29 02:08:44;;;;;;;;;;;;;;;12.32;46.47;101307.52;1775194;81;21159;-82
2021/03/29 02:11:12;;;;;;;82.80;32.85;;;;;;;12.33;46.44;101304.67;1747753;81;20576;-77
2021/03/29 02:13:43;;;;;;;52.03;32.58;;;;;;;12.31;46.45;101308.02;1770985;80;21167;-79
2021/03/29 02:16:14;;;;;;;48.42;32.05;;;;;;;12.33;46.39;101305.17;1770082;81;21674;-80
2021/03/29 02:18:47;;;;;;;56.70;36.48;;;;;;;12.33;46.34;101300.64;1746776;81;21198;-79
2021/03/29 02:21:25;;;;;;;59.18;37.65;;;;;;;12.32;46.34;101299.45;1770329;80;21358;-80
2021/03/29 02:23:56;;;;;;;64.97;43.90;;;;;;;12.31;46.39;101303.98;1770303;81;21151;-81
2021/03/29 02:26:31;;;;;;;63.38;39.73;;;;;;;12.32;46.45;101303.48;1747202;81;21139;-81
2021/03/29 02:28:59;;;;;;;55.12;36.10;;;;;;;12.32;46.48;101304.83;1770742;81;21123;-79
2021/03/29 02:31:27;;;;;;;;;;;;;;;12.36;46.45;101303.54;1773600;80;21233;-80
2021/03/29 02:33:56;;;;;;;49.97;31.97;;;;;;;12.37;46.47;101302.03;1771291;81;20216;-79
2021/03/29 02:36:26;;;;;;;53.15;33.05;;;;;;;12.36;46.51;101304.88;1770772;81;21148;-79
2021/03/29 02:38:54;;;;;;;52.33;33.53;;;;;;;12.35;46.55;101305.84;1748096;81;21143;-79
2021/03/29 02:41:25;;;;;;;48.87;29.12;;;;;;;12.36;46.59;101304.37;1771088;81;21127;-81
2021/03/29 02:43:52;;;;;;;49.42;30.48;;;;;;;12.38;46.65;101306.91;1770996;81;21203;-78
2021/03/29 02:46:29;;;;;;;48.33;31.10;;;;;;;12.41;46.67;101307.96;1747786;81;21152;-80
2021/03/29 02:48:58;;;;;;;48.42;34.63;;;;;;;12.43;46.73;101309.98;1772647;81;21159;-77
2021/03/29 02:51:25;;;;;;;51.15;33.90;;;;;;;12.46;46.76;101317.76;1748062;81;21187;-78
2021/03/29 02:53:58;;;;;;;53.48;33.48;;;;;;;12.47;46.83;101312.73;1771387;80;21606;-79
2021/03/29 02:56:33;;;;;;;48.65;30.88;;;;;;;12.48;46.91;101316.25;1748084;81;21084;-78
2021/03/29 02:59:04;;;;;;;48.92;31.75;;;;;;;12.48;46.98;101318.44;1770635;80;21139;-77
2021/03/29 03:01:33;;;;;;;48.23;29.85;;;;;;;12.49;47.11;101320.63;1747249;81;21193;-80
2021/03/29 03:04:02;;;;;;;47.50;31.17;;;;;;;12.47;47.18;101314.07;1770696;80;21166;-80
2021/03/29 03:06:30;;;;;;;45.23;29.92;;;;;;;12.47;47.26;101314.07;1771296;81;21064;-77
2021/03/29 03:09:03;;;;;;;45.17;30.08;;;;;;;12.45;47.36;101320.11;1771492;80;21060;-78
2021/03/29 03:11:34;;;;;;;41.92;28.32;;;;;;;12.42;47.45;101325.77;1771407;81;21162;-78
2021/03/29 03:14:07;;;;;;;42.10;25.65;;;;;;;12.41;47.50;101329.45;1770813;80;21159;-81
2021/03/29 03:16:38;;;;;;;42.05;26.10;;;;;;;12.39;47.54;101331.43;1770728;81;21562;-81
2021/03/29 03:19:08;;;;;;;39.98;25.70;;;;;;;12.38;47.52;101335.12;1748561;81;21063;-80
2021/03/29 03:21:37;;;;;;;37.08;25.37;;;;;;;12.36;47.47;101335.77;1777199;79;21122;-78
2021/03/29 03:24:07;;;;;;;32.45;23.77;;;;;;;12.33;47.45;101338.75;1771229;81;21137;-80
2021/03/29 03:26:34;;;;;;;36.25;24.87;;;;;;;12.31;47.43;101347.44;1772091;81;21146;-77
2021/03/29 03:29:04;;;;;;;38.85;23.62;;;;;;;12.26;47.41;101351.91;1772460;81;21163;-79
2021/03/29 03:31:32;;;;;;;39.92;23.87;;;;;;;12.25;47.44;101354.25;1771469;81;21579;-78
2021/03/29 03:34:02;;;;;;;38.88;24.37;;;;;;;12.22;47.45;101352.34;1770665;80;21199;-79
2021/03/29 03:36:29;;;;;;;35.13;23.05;;;;;;;12.17;47.45;101350.98;1778247;78;21207;-79
2021/03/29 03:38:58;;;;;;;38.58;22.93;;;;;;;12.18;47.41;101355.34;1769646;80;21147;-78
2021/03/29 03:41:32;;;;;;;35.30;22.80;;;;;;;12.16;47.35;101356.48;1769067;81;21500;-78
2021/03/29 03:44:01;;;;;;;32.42;20.48;;;;;;;12.13;47.43;101364.34;1769607;80;21758;-79
2021/03/29 03:46:37;;;;;;;34.10;19.95;;;;;;;12.11;47.40;101367.66;1769768;79;21157;-76
2021/03/29 03:49:08;;;;;;;31.40;20.60;;;;;;;12.10;47.40;101378.05;1787991;79;21142;-76
2021/03/29 03:51:36;;;;;;;35.05;20.77;;;;;;;12.07;47.36;101372.97;1770688;79;21221;-79
2021/03/29 03:54:05;;;;;;;35.90;23.05;;;;;;;12.08;47.27;101373.34;1769908;81;21179;-77
2021/03/29 03:56:33;;;;;;;36.35;21.70;;;;;;;12.08;47.14;101388.58;1745863;81;21211;-76
2021/03/29 03:59:05;;;;;;;34.98;21.75;;;;;;;12.04;47.11;101381.33;1770248;79;21174;-77
2021/03/29 04:01:54;;;;;;;32.42;20.25;;;;;;;12.00;47.06;101382.61;1768773;79;21681;-78
2021/03/29 04:04:22;;;;;;;32.63;19.55;;;;;;;11.95;47.10;101391.59;1785580;79;21186;-81
2021/03/29 04:06:50;;;;;;;35.00;20.02;;;;;;;11.92;47.02;101390.53;1746485;81;21040;-78
2021/03/29 04:09:20;;;;;;;32.00;20.82;;;;;;;11.89;47.04;101393.00;1803676;79;21643;-79
2021/03/29 04:11:51;;;;;;;29.72;17.25;;;;;;;11.86;47.03;101397.83;1767293;79;21181;-79
2021/03/29 04:14:17;;;;;;;30.20;17.75;;;;;;;11.85;46.97;101390.75;1817355;77;21155;-80
2021/03/29 04:16:44;;;;;;;32.10;18.17;;;;;;;11.81;46.97;101397.36;1793879;79;21177;-79
2021/03/29 04:19:13;;;;;;;28.90;17.25;;;;;;;11.81;47.02;101400.04;1801396;79;21187;-79
2021/03/29 04:21:40;;;;;;;32.03;18.90;;;;;;;11.82;47.02;101403.10;1760760;80;21186;-78
2021/03/29 04:24:08;;;;;;;;;;;;;;;11.84;46.98;101414.06;1786984;79;21191;-77
2021/03/29 04:26:35;;;;;;;31.50;19.17;;;;;;;11.87;46.92;101411.59;1760909;80;20255;-79
2021/03/29 04:29:03;;;;;;;27.67;19.12;;;;;;;11.88;46.84;101415.47;1775538;79;21382;-79
2021/03/29 04:31:32;;;;;;;31.15;19.62;;;;;;;11.88;46.72;101415.47;1789614;79;21300;-79
2021/03/29 04:33:59;;;;;;;34.65;18.92;;;;;;;11.89;46.66;101425.22;1789348;79;21198;-79
2021/03/29 04:36:30;;;;;;;33.48;19.62;;;;;;;11.86;46.74;101427.36;1779743;77;21594;-80
2021/03/29 04:38:58;;;;;;;29.30;18.73;;;;;;;11.89;46.64;101428.40;1779682;77;21149;-77
2021/03/29 04:41:25;;;;;;;29.70;18.25;;;;;;;11.75;46.95;101427.47;1761135;79;21218;-78
2021/03/29 04:43:52;;;;;;;;;;;;;;;11.85;46.65;101435.04;1776542;80;21205;-78
2021/03/29 04:46:19;;;;;;;31.00;18.92;;;;;;;11.88;46.55;101439.63;1747854;80;20274;-77
2021/03/29 04:48:47;;;;;;;29.23;18.80;;;;;;;11.89;46.60;101443.16;1763343;79;21127;-76
2021/03/29 04:51:14;;;;;;;32.67;18.70;;;;;;;11.88;46.49;101440.98;1783961;79;21139;-77
2021/03/29 04:53:41;;;;;;;;;;;;;;;11.91;46.37;101446.57;1775794;79;21139;-77
2021/03/29 04:56:08;;;;;;;28.17;18.98;;;;;;;11.91;46.24;101445.23;1782440;78;20272;-77
2021/03/29 04:58:39;;;;;;;33.67;18.73;;;;;;;11.89;46.28;101446.69;1734439;80;21649;-77
2021/03/29 05:01:08;;;;;;;32.25;18.10;;;;;;;11.92;46.21;101456.31;1795665;78;21169;-76
2021/03/29 05:03:35;;;;;;;28.57;18.00;;;;;;;11.95;46.07;101462.75;1768795;80;21158;-78
2021/03/29 05:06:03;;;;;;;29.40;17.77;;;;;;;11.96;46.12;101459.06;1777501;78;21132;-77
2021/03/29 05:08:31;;;;;;;30.08;18.90;;;;;;;11.95;46.18;101461.41;1749869;80;21179;-77
2021/03/29 05:10:58;;;;;;;;;;;;;;;12.03;46.10;101466.04;1763316;79;21685;-76
2021/03/29 05:13:25;;;;;;;27.37;17.30;;;;;;;12.08;46.07;101469.14;1770171;79;20300;-76
2021/03/29 05:15:54;;;;;;;27.22;17.90;;;;;;;12.12;45.94;101463.84;1780635;79;21242;-77
2021/03/29 05:18:23;;;;;;;28.12;18.07;;;;;;;12.18;45.93;101474.03;1759967;79;21423;-73
2021/03/29 05:20:51;;;;;;;27.22;16.80;;;;;;;12.23;45.82;101471.75;1761692;79;21235;-75
2021/03/29 05:23:20;;;;;;;28.87;18.37;;;;;;;12.28;45.66;101468.14;1789913;78;21113;-76
2021/03/29 05:25:49;;;;;;;25.97;16.95;;;;;;;12.34;45.45;101472.08;1783432;78;21126;-79
2021/03/29 05:28:19;;;;;;;28.87;17.37;;;;;;;12.37;45.26;101476.67;1784755;79;21261;-78
2021/03/29 05:30:47;;;;;;;28.00;17.60;;;;;;;12.42;45.04;101480.27;1735809;79;21118;-77
2021/03/29 05:33:15;;;;;;;;;;;;;;;12.48;44.71;101476.98;1764533;78;21130;-76
2021/03/29 05:35:42;;;;;;;35.65;17.62;;;;;;;12.54;44.66;101480.45;1751583;79;20271;-77
2021/03/29 05:38:10;;;;;;;28.45;17.82;;;;;;;12.58;44.67;101485.02;1784195;77;21137;-77
2021/03/29 05:40:38;;;;;;;38.85;18.95;;;;;;;12.63;44.52;101494.86;1757723;79;21170;-77
2021/03/29 05:43:05;;;;;;;29.37;18.27;;;;;;;12.66;44.29;101497.23;1784550;78;21140;-77
2021/03/29 05:45:32;;;;;;;;;;;;;;;12.66;44.30;101498.58;1767026;78;21626;-78
2021/03/29 05:48:08;;;;;;;38.88;18.32;;;;;;;12.75;44.13;101503.58;1784177;77;20270;-80
2021/03/29 05:50:44;;;;;;;32.48;16.85;;;;;;;12.78;43.99;101500.60;1786288;77;21054;-76
2021/03/29 05:53:14;;;;;;;39.20;18.12;;;;;;;12.84;43.94;101501.34;1763539;79;21222;-76
2021/03/29 05:55:43;;;;;;;38.83;20.08;;;;;;;12.88;43.85;101503.59;1763630;78;21458;-76
2021/03/29 06:00:55;;;;;;;29.37;17.75;;;;;;;12.98;43.61;101514.30;1741934;78;21174;-76
2021/03/29 06:03:28;;;;;;;29.40;17.85;;;;;;;13.03;43.32;101514.70;1736535;78;21273;-76
2021/03/29 06:06:20;;;;;;;34.38;18.07;;;;;;;13.11;43.15;101518.85;1831323;76;22930;-76
2021/03/29 06:08:51;;;;;;;32.23;18.65;;;;;;;13.09;42.94;101516.82;1739337;80;21695;-76
2021/03/29 06:11:32;;;;;;;32.15;17.12;;;;;;;12.96;43.21;101524.38;1739871;80;21177;-76
2021/03/29 06:14:16;;;;;;;40.25;18.32;;;;;;;13.14;42.90;101517.22;1757610;80;21612;-76
2021/03/29 06:17:10;;;;;;;30.20;17.10;;;;;;;13.28;42.59;101518.59;1763178;79;20962;-75
2021/03/29 06:20:00;;;;;;;34.18;18.55;;;;;;;13.35;42.52;101522.39;1736412;78;21105;-78
2021/03/29 06:27:17;;;;;;;37.28;16.97;;;;;;;13.52;42.07;101527.45;1488941;94;21515;-76
2021/03/29 06:35:18;;;;;;;;;;;;;;;;;;;;;
2021/03/29 06:38:54;;;;;;;27.67;16.93;;;;;;;14.07;41.29;101541.30;1805179;77;24285;-76
2021/03/29 06:41:54;;;;;;;;;;;;;;;;;;;;;
2021/03/29 06:44:38;;;;;;;32.13;18.48;;;;;;;14.26;40.68;101555.09;1801011;77;21276;-77
2021/03/29 06:47:14;;;;;;;32.10;17.48;;;;;;;14.29;40.52;101554.80;1846087;75;21429;-74
2021/03/29 06:49:47;;;;;;;28.45;17.20;;;;;;;14.28;40.42;101554.45;1829090;76;21208;-75
2021/03/29 06:52:31;;;;;;;28.90;18.07;;;;;;;14.25;40.27;101560.99;1848222;75;21205;-75
2021/03/29 06:55:20;;;;;;;35.25;18.73;;;;;;;14.18;40.39;101567.52;1795421;78;21111;-77
2021/03/29 06:58:04;;;;;;;31.40;17.90;;;;;;;14.12;40.43;101569.45;1802590;78;21129;-76
2021/03/29 07:00:37;;;;;;;29.02;17.90;;;;;;;14.04;40.32;101568.56;1836468;75;21589;-78
2021/03/29 07:03:09;;;;;;;32.73;19.75;;;;;;;13.99;40.27;101570.37;1847143;76;21144;-76
2021/03/29 07:05:37;;;;;;;35.52;19.85;;;;;;;13.94;40.30;101582.08;1856200;76;21097;-76
2021/03/29 07:08:07;;;;;;;28.98;19.77;;;;;;;13.90;40.51;101575.33;1818494;77;21163;-79
2021/03/29 07:10:37;;;;;;;32.93;19.48;;;;;;;13.82;40.59;101583.31;1849245;75;21093;-79
2021/03/29 07:13:08;;;;;;;34.35;19.35;;;;;;;13.85;40.45;101585.69;1849451;76;21685;-77
2021/03/29 07:15:36;;;;;;;30.35;18.85;;;;;;;14.00;40.36;101587.38;1855664;75;21081;-75
2021/03/29 07:18:05;;;;;;;35.28;20.20;;;;;;;14.07;40.50;101585.23;1852134;75;21130;-80
2021/03/29 07:20:33;;;;;;;33.42;19.40;;;;;;;14.24;40.54;101590.80;1808276;77;21135;-80
2021/03/29 07:23:02;;;;;;;33.38;19.27;;;;;;;14.39;40.43;101587.89;1808536;76;21173;-78
2021/03/29 07:25:32;;;;;;;31.93;18.77;;;;;;;14.58;40.04;101593.16;1831198;76;21150;-79
2021/03/29 07:28:04;;;;;;;37.03;19.05;;;;;;;14.80;39.63;101590.94;1860463;76;21113;-78
2021/03/29 07:30:51;;;;;;;34.78;19.85;;;;;;;15.03;39.35;101590.74;1862830;75;21175;-81
2021/03/29 07:33:19;;;;;;;30.08;19.27;;;;;;;15.25;38.99;101601.50;1862071;76;21560;-78
2021/03/29 07:35:58;;;;;;;34.60;19.12;;;;;;;15.47;38.30;101597.39;1859826;75;21101;-80
2021/03/29 07:38:27;;;;;;;28.62;19.75;;;;;;;15.67;37.83;101608.31;1841038;76;21653;-79
2021/03/29 07:40:59;;;;;;;30.50;19.87;;;;;;;15.84;37.58;101608.35;1812015;76;21113;-78
2021/03/29 07:43:30;;;;;;;31.15;20.08;;;;;;;16.01;37.22;101615.50;1830089;75;21147;-77
2021/03/29 07:46:04;;;;;;;33.13;20.45;;;;;;;16.17;36.76;101611.48;1747073;80;21134;-78
2021/03/29 08:02:09;;;;;;;30.90;18.90;;;;;;;16.93;35.48;101621.64;1798764;78;22076;-78
2021/03/29 08:07:45;;;;;;;34.98;21.30;;;;;;;17.20;35.08;101629.38;1831649;76;23622;-79
2021/03/29 08:10:16;;;;;;;33.50;21.55;;;;;;;17.30;34.84;101633.75;1807809;77;21104;-77
2021/03/29 08:13:05;;;;;;;37.25;21.12;;;;;;;17.43;34.79;101633.53;1807441;77;21118;-79
2021/03/29 08:16:06;;;;;;;32.45;20.48;;;;;;;17.57;34.62;101638.73;1811471;77;21156;-79
2021/03/29 08:19:11;;;;;;;33.70;20.65;;;;;;;17.72;34.44;101639.70;1809891;77;21065;-76
2021/03/29 08:22:03;;;;;;;36.13;20.00;;;;;;;17.88;34.06;101640.67;1770537;77;21096;-78
2021/03/29 08:24:47;;;;;;;32.15;19.85;;;;;;;18.02;33.85;101637.20;1815893;77;21088;-78
2021/03/29 08:27:23;;;;;;;25.32;17.98;;;;;;;18.15;33.64;101637.46;1804863;77;21144;-77
2021/03/29 08:29:56;;;;;;;26.27;19.17;;;;;;;18.29;33.65;101636.36;1843157;75;21680;-80
2021/03/29 08:32:36;;;;;;;27.87;20.12;;;;;;;18.43;33.43;101636.94;1807472;77;21614;-77
2021/03/29 08:35:22;;;;;;;28.87;19.85;;;;;;;18.57;33.49;101638.85;1807665;77;21093;-78
2021/03/29 08:51:24;;;;;;;31.37;18.85;;;;;;;19.23;32.68;101631.82;1785294;78;22125;-77
2021/03/29 08:54:30;;;;;;;26.00;18.55;;;;;;;19.34;32.60;101632.38;1844388;75;22754;-77
2021/03/29 08:57:14;;;;;;;27.35;19.07;;;;;;;19.36;32.43;101632.53;1781348;77;21213;-80
2021/03/29 08:59:42;;;;;;;30.30;19.15;;;;;;;19.41;32.42;101634.17;1780512;78;21203;-78
2021/03/29 09:02:15;;;;;;;27.05;18.20;;;;;;;19.48;32.36;101639.68;1761502;79;21101;-77
2021/03/29 09:04:57;;;;;;;27.45;19.25;;;;;;;19.52;32.44;101637.76;1761512;79;21509;-79
2021/03/29 09:07:38;;;;;;;23.57;18.10;;;;;;;19.53;32.25;101638.62;1766600;79;21185;-77
2021/03/29 09:10:17;;;;;;;27.52;19.50;;;;;;;19.52;32.36;101638.28;1756254;79;21841;-77
2021/03/29 09:13:00;;;;;;;25.97;18.00;;;;;;;19.51;32.26;101637.95;1760313;79;21189;-79
2021/03/29 09:15:35;;;;;;;28.02;19.48;;;;;;;19.49;32.27;101640.03;1824835;76;21200;-78
2021/03/29 09:18:13;;;;;;;24.82;17.87;;;;;;;19.45;32.06;101644.16;1812628;77;21335;-77
2021/03/29 09:20:46;;;;;;;25.88;18.65;;;;;;;19.39;32.13;101644.36;1816981;77;21027;-79
2021/03/29 09:23:21;;;;;;;26.55;18.95;;;;;;;19.33;32.17;101643.77;1783009;78;21122;-78
2021/03/29 09:25:51;;;;;;;26.23;18.60;;;;;;;19.20;32.13;101648.48;1783301;78;21145;-79
2021/03/29 09:31:12;;;;;;;27.05;17.20;;;;;;;18.95;32.36;101653.84;1720467;81;21170;-81
2021/03/29 09:33:42;;;;;;;22.00;17.17;;;;;;;18.85;32.44;101657.31;1824782;77;21110;-77
2021/03/29 09:49:52;;;;;;;26.48;15.72;;;;;;;18.36;32.78;101665.82;1793596;77;22206;-76
2021/03/29 09:52:41;;;;;;;21.52;15.40;;;;;;;18.25;32.67;101665.70;1703618;81;21232;-77
2021/03/29 09:55:12;;;;;;;30.68;18.27;;;;;;;18.15;32.70;101668.64;1700074;81;21817;-76
2021/03/29 09:57:43;;;;;;;28.10;16.62;;;;;;;18.08;32.89;101668.20;1677816;84;21255;-76
2021/03/29 10:00:25;;;;;;;29.95;16.00;;;;;;;18.05;33.38;101668.03;1678831;84;21535;-78
2021/03/29 10:03:00;;;;;;;22.00;15.05;;;;;;;18.05;33.21;101674.81;1660531;84;21239;-77
2021/03/29 10:05:34;;;;;;;22.40;14.35;;;;;;;18.03;33.08;101674.64;1674755;84;21280;-78
2021/03/29 10:08:01;;;;;;;27.98;15.18;;;;;;;17.99;32.95;101676.38;1676986;84;21176;-80
2021/03/29 10:10:30;;;;;;;;;;;;;;;17.95;33.03;101674.19;1678128;84;21156;-78
2021/03/29 10:13:15;;;;;;;19.85;13.48;;;;;;;17.95;33.08;101670.13;1677174;84;20161;-78
2021/03/29 10:15:49;;;;;;;22.95;14.45;;;;;;;17.96;33.26;101674.52;1691748;83;21160;-77
2021/03/29 10:18:18;;;;;;;19.92;13.30;;;;;;;17.96;33.23;101669.94;1666945;83;21172;-78
2021/03/29 10:20:46;;;;;;;24.98;14.15;;;;;;;17.97;32.80;101679.75;1666933;84;21172;-78
2021/03/29 10:23:28;;;;;;;22.22;14.47;;;;;;;17.91;32.60;101678.27;1667095;84;21148;-78
2021/03/29 10:26:21;;;;;;;18.55;13.35;;;;;;;17.82;32.59;101680.69;1657141;84;21155;-77
2021/03/29 10:28:54;;;;;;;19.95;13.15;;;;;;;17.68;32.62;101685.78;1674568;84;21143;-76
2021/03/29 10:31:22;;;;;;;25.55;14.95;;;;;;;17.56;32.68;101680.39;1676355;84;21104;-78
2021/03/29 10:47:34;;;;;;;29.48;20.02;;;;;;;17.33;33.00;101671.33;1794874;78;22958;-80
2021/03/29 10:50:05;;;;;;;30.90;19.70;;;;;;;17.30;33.04;101676.56;1759536;80;21294;-77
2021/03/29 10:52:35;;;;;;;22.82;15.45;;;;;;;17.33;33.07;101683.52;1766358;79;21625;-78
2021/03/29 10:55:05;;;;;;;23.60;14.50;;;;;;;17.37;33.16;101684.86;1740728;80;21189;-77
2021/03/29 10:57:34;;;;;;;17.95;12.80;;;;;;;17.37;33.10;101679.45;1788365;78;21085;-78
2021/03/29 11:00:06;;;;;;;16.57;11.30;;;;;;;17.40;33.06;101684.52;1762086;80;22076;-78
2021/03/29 11:02:34;;;;;;;21.05;11.33;;;;;;;17.41;32.83;101688.92;1762223;80;21059;-76
2021/03/29 11:05:06;;;;;;;15.45;10.23;;;;;;;17.41;32.69;101682.98;1760548;80;21173;-78
2021/03/29 11:07:34;;;;;;;13.20;10.00;;;;;;;17.42;32.49;101683.83;1790373;79;21234;-79
2021/03/29 11:10:04;;;;;;;19.00;10.70;;;;;;;17.41;32.28;101688.92;1737597;80;21133;-76
2021/03/29 11:12:34;;;;;;;18.87;10.23;;;;;;;17.41;32.15;101691.63;1764901;80;21993;-78
2021/03/29 11:15:06;;;;;;;17.52;10.48;;;;;;;17.41;32.09;101688.41;1764261;80;21089;-81
2021/03/29 11:17:37;;;;;;;17.57;12.03;;;;;;;17.38;32.24;101689.25;1765967;80;21153;-78
2021/03/29 11:20:05;;;;;;;17.55;10.40;;;;;;;17.43;32.09;101687.70;1766227;79;21187;-78
2021/03/29 11:22:33;;;;;;;17.15;10.28;;;;;;;17.45;31.90;101683.49;1761668;80;21618;-77
2021/03/29 11:25:05;;;;;;;15.50;10.40;;;;;;;17.48;31.70;101690.73;1783856;78;21011;-78
2021/03/29 11:27:34;;;;;;;15.63;9.48;;;;;;;17.52;31.67;101679.05;1762996;79;21116;-78
2021/03/29 11:30:04;;;;;;;12.70;8.35;;;;;;;17.57;31.47;101681.23;1759411;80;21110;-78
2021/03/29 11:32:31;;;;;;;14.40;8.70;;;;;;;17.61;31.32;101684.78;1769574;79;21110;-76
2021/03/29 11:34:58;;;;;;;11.63;8.28;;;;;;;17.64;30.96;101689.02;1764010;80;21106;-77
2021/03/29 11:37:28;;;;;;;15.53;9.23;;;;;;;17.61;31.02;101687.48;1764450;80;21139;-77
2021/03/29 11:39:58;;;;;;;19.40;9.88;;;;;;;17.55;31.32;101680.07;1790899;78;21651;-78
2021/03/29 11:42:36;;;;;;;16.23;9.70;;;;;;;17.55;31.26;101681.94;1791181;78;21846;-78
2021/03/29 11:45:10;;;;;;;14.58;8.13;;;;;;;17.17;31.83;101681.19;1777739;78;21137;-79
2021/03/29 11:47:39;;;;;;;11.53;7.22;;;;;;;17.50;31.27;101685.17;1765361;79;20982;-79
2021/03/29 11:50:12;;;;;;;12.55;7.95;;;;;;;17.57;30.84;101684.79;1759452;79;21145;-79
2021/03/29 11:52:39;;;;;;;11.73;7.60;;;;;;;17.58;30.67;101686.50;1787095;78;21566;-78
2021/03/29 11:55:07;;;;;;;12.43;7.12;;;;;;;17.61;30.54;101682.59;1771152;79;21752;-76
2021/03/29 11:57:35;;;;;;;14.35;7.40;;;;;;;17.63;30.51;101688.17;1787381;78;21211;-77
2021/03/29 12:00:07;;;;;;;12.15;7.40;;;;;;;17.65;30.45;101683.92;1789925;79;21216;-78
2021/03/29 12:02:41;;;;;;;11.60;7.72;;;;;;;17.67;30.24;101687.33;1798652;78;21113;-77
2021/03/29 12:05:19;;;;;;;11.22;6.80;;;;;;;17.68;29.87;101688.50;1769196;79;21139;-80
2021/03/29 12:13:18;;;;;;;13.48;7.60;;;;;;;17.65;29.86;101688.83;1738785;80;21487;-82
2021/03/29 12:15:51;;;;;;;12.05;8.05;;;;;;;17.65;30.00;101694.77;1789591;78;21224;-80
2021/03/29 12:21:07;;;;;;;10.75;6.50;;;;;;;17.67;29.62;101694.09;1787582;79;21225;-79
2021/03/29 12:23:36;;;;;;;9.03;6.12;;;;;;;17.65;29.10;101690.19;1762952;80;21233;-79
2021/03/29 12:26:04;;;;;;;16.20;7.42;;;;;;;17.63;29.06;101692.24;1738089;80;21229;-80
2021/03/29 12:28:32;;;;;;;11.00;6.58;;;;;;;17.64;28.98;101690.38;1742610;79;21591;-79
2021/03/29 12:30:59;;;;;;;10.38;6.28;;;;;;;17.64;28.88;101687.66;1743611;80;21739;-79
2021/03/29 12:33:29;;;;;;;12.07;6.15;;;;;;;17.63;28.61;101688.17;1787385;78;21203;-79
2021/03/29 12:35:57;;;;;;;7.42;5.60;;;;;;;17.66;28.42;101693.23;1760603;80;21138;-78
2021/03/29 12:38:26;;;;;;;8.28;5.67;;;;;;;17.65;27.94;101693.41;1761597;80;21722;-78
2021/03/29 12:40:57;;;;;;;9.73;5.83;;;;;;;17.63;27.79;101688.17;1789662;78;21188;-77
2021/03/29 12:43:32;;;;;;;8.03;5.37;;;;;;;17.63;27.68;101695.47;1790615;78;20982;-78
2021/03/29 12:45:53;;;;;;;9.58;6.08;;;;;;;17.63;27.74;101696.30;1788126;79;21144;-79
2021/03/29 12:48:24;;;;;;;9.23;5.10;;;;;;;17.64;27.64;101695.28;1765925;79;21129;-78
2021/03/29 12:50:51;;;;;;;8.90;6.10;;;;;;;17.64;27.63;101691.22;1791280;78;21403;-78
2021/03/29 12:53:24;;;;;;;11.38;5.45;;;;;;;17.64;27.71;101695.28;1783617;78;21101;-78
2021/03/29 12:55:51;;;;;;;8.53;5.05;;;;;;;17.65;27.23;101694.25;1765433;80;21011;-79
2021/03/29 12:58:19;;;;;;;;;;;;;;;17.65;27.02;101693.41;1790957;79;21157;-79
2021/03/29 13:00:48;;;;;;;6.62;5.00;;;;;;;17.63;26.71;101696.30;1794378;79;20176;-79